Lompoc/Vandenberg AFB, California
Current Conditions -  °F | °C
As of 2:55 AM on Sunday 23 Nov 2014 (Local Time) from KVBG Reporting Station
Clear Clear  
Wind Chill: 55°   Ceiling: Unl
Heat Index: 55°   Visibility: 10mi
Dew Point: 50°   Wind: 14mph
Humidity: 83%   Direction: 340°NNW
Pressure: 30.15"   Gusts: NA
Location:  34.75°N, 120.57°W
Report Text: KVBG 231055Z AUTO 34012KT 10SM CLR 13/10 A3015 RMK AO2 SLP200 T01280100 TSNO $
Loading
Personal Weather Stations






























Interactive Weather Map New forecast layout! Learn more

10-Day Weather Forecast

Advertisements
Track Severe Weather on mobile